Time;durP1;ratioP1;P1;durP2;ratioP2;P2;SDS_P1;SDS_P2;PMS_P1;PMS_P2;Temp;Humidity;BMP_temperature;BMP_pressure;BME280_temperature;BME280_humidity;BME280_pressure;Samples;Min_cycle;Max_cycle;Signal;HPM_P1;HPM_P2
2022/07/11 00:00:12;;;;;;;2.00;0.90;;;;;;;20.00;56.02;99315.41;4939495;28;103762;-59
2022/07/11 00:02:41;;;;;;;1.27;0.70;;;;;;;20.07;55.25;99319.13;4942147;28;104782;-59
2022/07/11 00:05:10;;;;;;;2.20;1.10;;;;;;;19.98;55.72;99320.09;4940596;28;103181;-60
2022/07/11 00:07:38;;;;;;;2.53;0.90;;;;;;;19.80;57.35;99316.56;4943858;28;102758;-60
2022/07/11 00:10:08;;;;;;;1.90;1.00;;;;;;;19.78;57.41;99313.22;4942882;28;102732;-59
2022/07/11 00:12:36;;;;;;;1.80;1.00;;;;;;;19.87;57.41;99311.44;4939576;28;104152;-59
2022/07/11 00:15:07;;;;;;;2.88;1.10;;;;;;;19.91;57.12;99302.91;4940684;28;103306;-60
2022/07/11 00:17:35;;;;;;;1.67;1.00;;;;;;;19.73;57.88;99303.94;4941104;28;103115;-59
2022/07/11 00:20:04;;;;;;;2.20;0.93;;;;;;;19.79;57.23;99303.34;4954210;28;103122;-59
2022/07/11 00:22:34;;;;;;;1.85;1.20;;;;;;;19.61;58.58;99295.28;4941300;28;103540;-59
2022/07/11 00:25:02;;;;;;;1.33;0.90;;;;;;;19.75;58.27;99296.59;4942302;28;103228;-59
2022/07/11 00:27:34;;;;;;;1.27;1.00;;;;;;;19.75;57.52;99296.59;4944140;28;102693;-59
2022/07/11 00:30:05;;;;;;;2.10;0.90;;;;;;;19.77;58.24;99295.44;4943348;28;102910;-60
2022/07/11 00:32:32;;;;;;;2.33;1.35;;;;;;;19.80;57.79;99294.28;4924642;28;104178;-59
2022/07/11 00:35:01;;;;;;;2.00;1.20;;;;;;;19.87;57.57;99290.84;4923620;28;104131;-60
2022/07/11 00:37:29;;;;;;;1.92;1.20;;;;;;;19.85;57.55;99295.50;4938745;28;102607;-59
2022/07/11 00:39:59;;;;;;;1.90;1.20;;;;;;;19.76;58.06;99299.09;4940898;28;103158;-59
2022/07/11 00:42:29;;;;;;;1.27;0.93;;;;;;;19.75;58.22;99291.22;4940670;28;103410;-60
2022/07/11 00:44:58;;;;;;;1.17;0.90;;;;;;;19.69;58.27;99287.31;4940925;28;103274;-59
2022/07/11 00:47:26;;;;;;;1.37;1.00;;;;;;;19.76;58.18;99291.06;4941229;28;103091;-58
2022/07/11 00:49:57;;;;;;;1.70;0.90;;;;;;;19.72;58.83;99291.53;4924708;28;102836;-59
2022/07/11 00:52:25;;;;;;;1.70;0.90;;;;;;;19.72;58.42;99289.69;4938919;28;103247;-58
2022/07/11 00:54:53;;;;;;;1.70;1.00;;;;;;;19.69;59.07;99281.97;4923139;28;103012;-59
2022/07/11 00:57:23;;;;;;;2.20;1.25;;;;;;;19.71;58.71;99279.97;4941964;28;102610;-59
2022/07/11 00:59:51;;;;;;;1.30;1.02;;;;;;;19.66;58.93;99279.59;4924923;28;102846;-59
2022/07/11 01:02:21;;;;;;;1.10;1.00;;;;;;;19.63;58.83;99282.56;4940331;28;103482;-59
2022/07/11 01:04:49;;;;;;;1.42;1.10;;;;;;;19.62;59.30;99280.91;4942272;28;103327;-60
2022/07/11 01:07:17;;;;;;;1.30;1.13;;;;;;;19.57;59.28;99283.19;4940902;28;102798;-59
2022/07/11 01:09:45;;;;;;;1.90;1.27;;;;;;;19.45;60.24;99279.88;4942570;28;102976;-59
2022/07/11 01:12:13;;;;;;;1.23;1.13;;;;;;;19.47;59.98;99274.38;4938392;28;103239;-59
2022/07/11 01:14:51;;;;;;;1.95;1.20;;;;;;;19.53;59.91;99277.31;4935989;28;103375;-59
2022/07/11 01:17:21;;;;;;;1.10;1.00;;;;;;;19.53;60.31;99271.09;4942856;28;102972;-59
2022/07/11 01:19:49;;;;;;;1.65;1.10;;;;;;;19.53;60.39;99277.31;4939361;28;102653;-59
2022/07/11 01:22:21;;;;;;;1.20;1.10;;;;;;;19.53;59.75;99276.47;4938997;28;103291;-59
2022/07/11 01:24:51;;;;;;;1.30;1.20;;;;;;;19.52;60.34;99270.25;4938779;28;103318;-59
2022/07/11 01:27:20;;;;;;;1.40;1.30;;;;;;;19.49;60.73;99275.06;4940347;28;102730;-58
2022/07/11 01:29:48;;;;;;;2.40;1.30;;;;;;;19.44;60.88;99266.66;4924640;28;104155;-59
2022/07/11 01:32:18;;;;;;;2.00;1.38;;;;;;;19.29;61.98;99273.50;4940593;28;103427;-59
2022/07/11 01:34:46;;;;;;;1.40;1.30;;;;;;;19.33;61.58;99274.88;4923018;28;103247;-59
2022/07/11 01:37:15;;;;;;;1.40;1.00;;;;;;;19.35;61.41;99265.69;4940275;28;102900;-59
2022/07/11 01:39:43;;;;;;;1.50;1.40;;;;;;;19.31;61.60;99274.22;4940830;28;103926;-59
2022/07/11 01:42:12;;;;;;;1.77;1.35;;;;;;;19.35;61.38;99268.38;4944344;28;103136;-59
2022/07/11 01:44:40;;;;;;;1.88;1.52;;;;;;;19.26;62.03;99268.44;4942484;28;103226;-59
2022/07/11 01:47:08;;;;;;;1.90;1.50;;;;;;;19.22;62.08;99261.72;4944341;28;103221;-60
2022/07/11 01:49:38;;;;;;;1.48;1.23;;;;;;;19.22;62.44;99267.06;4942551;28;102749;-59
2022/07/11 01:52:10;;;;;;;1.50;1.40;;;;;;;19.32;61.42;99268.69;4920822;28;104402;-59
2022/07/11 01:54:38;;;;;;;1.25;1.15;;;;;;;19.32;61.37;99262.47;4940935;28;103192;-59
2022/07/11 01:57:06;;;;;;;1.52;1.42;;;;;;;19.32;61.92;99263.31;4938949;28;102605;-59
2022/07/11 01:59:35;;;;;;;1.40;1.17;;;;;;;19.36;61.35;99271.91;4941307;28;104055;-59
2022/07/11 02:02:04;;;;;;;1.95;1.60;;;;;;;19.16;62.37;99262.31;4939492;28;103394;-59
2022/07/11 02:04:32;;;;;;;1.33;1.23;;;;;;;19.22;62.45;99267.06;4941274;28;103173;-59
2022/07/11 02:07:00;;;;;;;1.40;1.30;;;;;;;19.30;62.55;99259.97;4944138;28;102756;-59
2022/07/11 02:09:28;;;;;;;1.60;1.50;;;;;;;19.29;62.59;99262.78;4941513;28;103149;-59
2022/07/11 02:11:56;;;;;;;1.30;1.20;;;;;;;19.33;61.88;99258.81;4941955;28;103043;-59
2022/07/11 02:14:24;;;;;;;1.60;1.50;;;;;;;19.17;62.83;99255.97;4936726;28;103362;-59
2022/07/11 02:16:53;;;;;;;2.27;1.50;;;;;;;19.25;62.71;99261.41;4940365;28;102865;-59
2022/07/11 02:19:21;;;;;;;2.35;1.70;;;;;;;19.30;62.33;99253.75;4939282;28;102678;-59
2022/07/11 02:21:49;;;;;;;1.60;1.43;;;;;;;19.20;62.77;99258.34;4940159;28;103006;-59
2022/07/11 02:24:18;;;;;;;1.40;1.30;;;;;;;19.27;62.56;99256.75;4940636;28;103245;-60
2022/07/11 02:26:46;;;;;;;3.03;1.40;;;;;;;18.42;65.82;99257.03;4944224;28;102583;-59
2022/07/11 02:29:14;;;;;;;1.65;1.55;;;;;;;18.12;67.00;99250.13;4940561;28;103872;-59
2022/07/11 02:31:42;;;;;;;1.48;1.00;;;;;;;18.09;67.11;99265.59;4940614;28;103283;-59
2022/07/11 02:34:11;;;;;;;1.23;1.10;;;;;;;18.03;67.15;99261.66;4940772;28;103202;-59
2022/07/11 02:36:41;;;;;;;1.70;1.30;;;;;;;18.01;67.25;99260.13;4941239;28;102697;-59
2022/07/11 02:39:11;;;;;;;1.20;1.10;;;;;;;17.99;67.24;99259.44;4939572;28;102633;-59
2022/07/11 02:41:39;;;;;;;2.08;1.90;;;;;;;17.84;68.13;99257.22;4939420;28;103350;-58
2022/07/11 02:44:07;;;;;;;2.10;1.90;;;;;;;17.80;68.21;99261.16;4940552;28;103017;-58
2022/07/11 02:46:37;;;;;;;1.38;1.27;;;;;;;17.85;67.57;99258.88;4924486;28;102756;-59
2022/07/11 02:49:05;;;;;;;1.58;1.20;;;;;;;17.61;68.87;99265.66;4922238;28;102956;-58
2022/07/11 02:51:35;;;;;;;2.10;1.20;;;;;;;17.70;68.46;99256.81;4940770;28;103249;-58
2022/07/11 02:54:03;;;;;;;2.15;1.27;;;;;;;17.71;68.49;99258.50;4940632;28;103275;-58
2022/07/11 02:56:32;;;;;;;1.50;1.27;;;;;;;17.76;67.64;99258.91;4942562;28;102650;-58
2022/07/11 02:59:00;;;;;;;1.40;1.13;;;;;;;17.77;67.64;99258.75;4944390;28;104171;-58
2022/07/11 03:01:28;;;;;;;1.30;1.20;;;;;;;17.71;68.08;99264.66;4943193;28;103319;-58
2022/07/11 03:03:56;;;;;;;1.17;1.08;;;;;;;17.68;68.66;99267.66;4942235;28;103326;-58
2022/07/11 03:06:25;;;;;;;2.03;1.35;;;;;;;17.68;69.18;99262.31;4926578;28;102949;-58
2022/07/11 03:08:54;;;;;;;1.50;1.40;;;;;;;17.66;69.06;99256.25;4920996;28;103762;-59
2022/07/11 03:11:22;;;;;;;1.30;1.20;;;;;;;17.66;68.82;99269.59;4921661;28;104254;-58
2022/07/11 03:13:52;;;;;;;1.00;1.00;;;;;;;17.67;69.00;99265.94;4939183;28;104409;-58
2022/07/11 03:16:20;;;;;;;1.58;1.48;;;;;;;17.66;68.82;99269.59;4940805;28;102878;-58
2022/07/11 03:18:48;;;;;;;1.55;1.40;;;;;;;17.59;69.58;99271.16;4955499;28;102807;-58
2022/07/11 03:21:16;;;;;;;1.60;1.23;;;;;;;17.59;69.51;99268.50;4940582;28;103307;-58
2022/07/11 03:23:44;;;;;;;1.40;1.23;;;;;;;17.57;69.19;99269.63;4941769;28;103232;-59
2022/07/11 03:26:14;;;;;;;1.92;1.20;;;;;;;17.57;69.04;99267.78;4941481;28;102566;-58
2022/07/11 03:28:44;;;;;;;2.72;1.48;;;;;;;17.57;69.17;99259.75;4941501;28;103167;-59
2022/07/11 03:31:12;;;;;;;1.80;1.50;;;;;;;18.04;67.85;99265.19;4938747;28;104143;-58
2022/07/11 03:33:40;;;;;;;1.60;1.50;;;;;;;18.33;66.77;99257.94;4920808;28;103224;-58
2022/07/11 03:36:09;;;;;;;1.50;1.40;;;;;;;18.49;66.35;99263.53;4940535;28;103293;-58
2022/07/11 03:38:37;;;;;;;1.83;1.55;;;;;;;18.57;66.38;99260.97;4920144;28;102871;-58
2022/07/11 03:41:05;;;;;;;1.80;1.70;;;;;;;18.53;66.94;99265.75;4940962;28;103340;-59
2022/07/11 03:43:35;;;;;;;1.67;1.45;;;;;;;18.67;66.32;99268.94;4938229;28;103237;-58
2022/07/11 03:46:03;;;;;;;2.05;1.60;;;;;;;18.68;66.72;99267.94;4938669;28;102633;-58
2022/07/11 03:48:31;;;;;;;2.40;2.20;;;;;;;18.37;67.21;99268.19;4940722;28;102627;-58
2022/07/11 03:50:58;;;;;;;2.10;1.80;;;;;;;18.64;66.52;99262.03;4925876;28;103160;-60
2022/07/11 03:53:29;;;;;;;2.03;1.92;;;;;;;18.68;66.53;99263.44;4940816;28;103270;-57
2022/07/11 03:55:57;;;;;;;1.80;1.70;;;;;;;18.89;66.23;99265.88;4938702;28;102726;-58
2022/07/11 03:58:25;;;;;;;1.70;1.60;;;;;;;18.89;65.68;99266.69;4941662;28;102933;-59
2022/07/11 04:00:55;;;;;;;2.20;2.00;;;;;;;18.92;65.68;99265.56;4943455;28;103934;-59
2022/07/11 04:03:24;;;;;;;2.13;1.85;;;;;;;18.80;66.11;99267.63;4937755;28;103236;-59
2022/07/11 04:05:55;;;;;;;2.20;1.97;;;;;;;18.50;67.60;99259.84;4941871;28;102881;-58
2022/07/11 04:08:23;;;;;;;2.30;2.10;;;;;;;18.34;68.17;99255.09;4942362;28;103900;-59
2022/07/11 04:10:51;;;;;;;1.98;1.88;;;;;;;18.44;68.38;99263.09;4943008;28;103313;-59
2022/07/11 04:13:19;;;;;;;2.55;2.00;;;;;;;18.62;67.52;99264.03;4946178;28;103264;-58
2022/07/11 04:15:47;;;;;;;2.00;1.80;;;;;;;18.87;66.21;99263.34;4943436;28;102581;-58
2022/07/11 04:18:17;;;;;;;3.17;2.10;;;;;;;18.86;66.78;99266.19;4943914;28;103919;-59
2022/07/11 04:20:45;;;;;;;1.80;1.70;;;;;;;19.01;66.05;99270.88;4942538;28;103402;-59
2022/07/11 04:23:14;;;;;;;1.90;1.80;;;;;;;19.19;65.13;99262.88;4941555;28;103208;-59
2022/07/11 04:25:42;;;;;;;2.45;2.25;;;;;;;19.17;65.72;99259.50;4943246;28;102727;-58
2022/07/11 04:28:10;;;;;;;1.98;1.80;;;;;;;19.15;65.69;99260.63;4943985;28;103601;-59
2022/07/11 04:30:39;;;;;;;3.58;2.45;;;;;;;19.02;65.86;99271.72;4942507;28;103083;-59
2022/07/11 04:33:07;;;;;;;2.42;2.03;;;;;;;19.13;65.87;99268.81;4942816;28;103188;-59
2022/07/11 04:35:39;;;;;;;2.53;2.17;;;;;;;19.27;64.76;99264.78;4944143;28;102919;-59
2022/07/11 04:38:07;;;;;;;2.20;1.90;;;;;;;19.40;65.83;99262.59;4941871;28;102977;-60
2022/07/11 04:40:35;;;;;;;2.70;2.38;;;;;;;19.33;66.35;99261.50;4935857;28;103369;-59
2022/07/11 04:43:04;;;;;;;1.92;1.83;;;;;;;19.49;65.41;99254.47;4940338;28;103193;-59
2022/07/11 04:45:32;;;;;;;2.55;2.25;;;;;;;19.57;65.15;99256.38;4926873;28;103464;-59
2022/07/11 04:48:01;;;;;;;2.17;1.98;;;;;;;19.64;65.02;99257.47;4922711;28;102707;-59
2022/07/11 04:50:29;;;;;;;2.22;2.03;;;;;;;19.72;64.81;99254.00;4937639;28;103508;-59
2022/07/11 04:53:01;;;;;;;2.33;2.13;;;;;;;19.64;65.85;99265.50;4942714;28;103260;-59
2022/07/11 04:55:29;;;;;;;2.90;2.60;;;;;;;19.54;65.80;99257.53;4938372;28;102790;-59
2022/07/11 04:57:58;;;;;;;2.53;2.33;;;;;;;19.66;65.24;99256.31;4923480;28;103356;-59
2022/07/11 05:00:26;;;;;;;2.17;2.00;;;;;;;19.81;65.81;99253.06;4938190;28;104242;-61
2022/07/11 05:02:55;;;;;;;2.20;2.00;;;;;;;19.62;66.68;99256.78;4942434;28;103224;-60
2022/07/11 05:05:23;;;;;;;2.90;2.63;;;;;;;19.40;67.13;99254.53;4940337;28;102771;-60
2022/07/11 05:07:55;;;;;;;2.83;2.40;;;;;;;19.66;65.42;99263.50;4943827;28;102621;-60
2022/07/11 05:14:29;;;;;;;2.22;2.03;;;;;;;20.04;64.72;99265.81;4915765;28;102984;-59
2022/07/11 05:16:57;;;;;;;2.40;2.20;;;;;;;20.07;65.21;99268.16;4938684;28;102794;-60
2022/07/11 05:19:25;;;;;;;2.73;2.10;;;;;;;20.16;64.97;99267.25;4939563;28;102801;-60
2022/07/11 05:21:53;;;;;;;2.50;2.30;;;;;;;20.19;63.89;99277.66;4915457;28;103713;-60
2022/07/11 05:24:23;;;;;;;2.05;1.95;;;;;;;20.36;63.27;99269.72;4922030;28;103289;-60
2022/07/11 05:26:50;;;;;;;2.20;1.92;;;;;;;20.37;63.43;99274.94;4941995;28;102643;-60
2022/07/11 05:29:18;;;;;;;2.78;2.58;;;;;;;20.38;63.57;99271.25;4939375;28;102775;-60
2022/07/11 05:31:50;;;;;;;2.38;2.13;;;;;;;20.50;62.45;99275.34;4939111;28;103769;-59
2022/07/11 05:34:18;;;;;;;2.08;1.98;;;;;;;20.56;62.80;99273.88;4922402;28;103411;-60
2022/07/11 05:36:47;;;;;;;2.60;2.30;;;;;;;20.57;62.71;99284.47;4939893;28;102970;-59
2022/07/11 05:39:16;;;;;;;2.65;2.45;;;;;;;20.51;62.55;99282.41;4937665;28;102633;-60
2022/07/11 05:41:44;;;;;;;3.10;2.80;;;;;;;20.07;63.71;99281.59;4916732;28;103994;-59
2022/07/11 05:44:12;;;;;;;2.58;2.35;;;;;;;20.08;63.69;99280.59;4936637;28;103479;-60
2022/07/11 05:46:40;;;;;;;2.20;2.00;;;;;;;20.47;63.10;99288.25;4940953;28;102647;-59
2022/07/11 05:49:09;;;;;;;2.70;2.50;;;;;;;20.58;62.43;99290.66;4942295;28;102651;-60
2022/07/11 05:51:37;;;;;;;2.55;2.20;;;;;;;20.50;61.94;99287.94;4941704;28;103300;-60
2022/07/11 05:54:05;;;;;;;2.30;2.10;;;;;;;20.74;61.89;99290.75;4942767;28;103427;-59
2022/07/11 05:56:36;;;;;;;2.15;1.95;;;;;;;20.83;62.12;99290.59;4925523;28;102737;-59
2022/07/11 05:59:04;;;;;;;2.25;2.10;;;;;;;20.81;62.28;99281.88;4940424;28;102732;-59
2022/07/11 06:01:32;;;;;;;2.55;2.35;;;;;;;20.73;61.95;99294.44;4939515;28;103332;-60
2022/07/11 06:04:04;;;;;;;3.23;2.63;;;;;;;20.57;62.56;99295.19;4936974;28;103326;-59
2022/07/11 06:06:33;;;;;;;3.00;2.70;;;;;;;20.59;62.87;99290.50;4941547;28;102585;-60
2022/07/11 06:09:02;;;;;;;2.60;2.40;;;;;;;20.37;63.27;99290.22;4941310;28;102661;-60
2022/07/11 06:11:30;;;;;;;2.92;2.63;;;;;;;20.43;63.28;99286.91;4940337;28;103961;-59
2022/07/11 06:13:58;;;;;;;3.13;2.83;;;;;;;20.06;64.54;99293.34;4939272;28;103221;-60
2022/07/11 06:16:28;;;;;;;2.43;2.23;;;;;;;20.35;64.15;99294.91;4940927;28;102767;-60
2022/07/11 06:18:56;;;;;;;2.42;2.22;;;;;;;20.30;63.99;99286.47;4945066;28;103036;-60
2022/07/11 06:21:24;;;;;;;2.92;2.72;;;;;;;20.37;63.37;99292.88;4940577;28;103297;-60
2022/07/11 06:23:54;;;;;;;1.98;1.85;;;;;;;20.89;62.31;99294.50;4943885;28;103061;-60
2022/07/11 06:26:22;;;;;;;2.03;1.92;;;;;;;21.24;61.34;99290.78;4941639;28;102655;-61
2022/07/11 06:28:52;;;;;;;2.80;2.10;;;;;;;21.37;61.01;99289.31;4941220;28;104000;-64
2022/07/11 06:31:20;;;;;;;3.22;2.30;;;;;;;21.46;61.00;99292.00;4941590;28;103286;-64
2022/07/11 06:33:54;;;;;;;2.47;2.13;;;;;;;21.42;60.35;99282.59;4922545;28;104402;-64
2022/07/11 06:36:23;;;;;;;9.63;4.17;;;;;;;21.27;65.65;99299.38;4925784;28;102851;-64
2022/07/11 06:38:53;;;;;;;2.88;2.67;;;;;;;21.46;65.71;99286.63;4940456;28;104181;-60
2022/07/11 06:41:22;;;;;;;2.53;2.33;;;;;;;21.59;65.23;99287.81;4940303;28;104096;-61
2022/07/11 06:43:50;;;;;;;3.00;2.75;;;;;;;21.61;64.04;99291.22;4942916;28;103231;-60
2022/07/11 06:46:18;;;;;;;3.35;3.05;;;;;;;21.57;63.69;99289.84;4936293;28;102780;-60
2022/07/11 06:48:46;;;;;;;2.87;2.67;;;;;;;21.90;63.31;99285.34;4940719;28;103936;-60
2022/07/11 06:51:14;;;;;;;2.70;2.50;;;;;;;21.63;60.79;99289.19;4920810;28;103324;-60
2022/07/11 06:53:42;;;;;;;2.67;2.22;;;;;;;21.51;62.66;99289.66;4939980;28;103104;-61
2022/07/11 06:56:13;;;;;;;3.55;2.70;;;;;;;21.20;62.25;99287.59;4918686;28;102750;-60
2022/07/11 06:58:41;;;;;;;2.80;2.60;;;;;;;21.38;61.61;99285.63;4938692;28;102669;-61
2022/07/11 07:01:09;;;;;;;2.73;2.53;;;;;;;21.89;61.09;99283.69;4937136;28;103284;-60
2022/07/11 07:03:37;;;;;;;2.85;2.63;;;;;;;22.03;61.83;99285.69;4939940;28;103452;-61
2022/07/11 07:06:06;;;;;;;2.38;2.00;;;;;;;22.39;60.98;99281.59;4942414;28;102639;-61
2022/07/11 07:08:34;;;;;;;2.20;2.10;;;;;;;22.69;59.74;99282.72;4938439;28;102643;-60
2022/07/11 07:11:02;;;;;;;2.80;2.60;;;;;;;22.43;58.51;99277.53;4939797;28;103287;-61
2022/07/11 07:13:37;;;;;;;2.40;2.20;;;;;;;22.26;58.17;99281.28;4939966;28;103262;-61
2022/07/11 07:16:06;;;;;;;2.40;2.20;;;;;;;22.50;57.06;99289.31;4943468;28;102981;-61
2022/07/11 07:18:37;;;;;;;2.30;2.10;;;;;;;22.94;58.08;99281.59;4940563;28;102599;-61
2022/07/11 07:21:06;;;;;;;3.40;2.40;;;;;;;22.90;57.63;99279.44;4937314;28;103078;-60
2022/07/11 07:23:34;;;;;;;2.60;2.40;;;;;;;22.97;58.72;99281.25;4940907;28;103198;-61
2022/07/11 07:26:02;;;;;;;2.42;2.22;;;;;;;23.15;57.84;99282.84;4927398;28;102702;-60
2022/07/11 07:28:30;;;;;;;2.85;2.10;;;;;;;22.34;55.42;99283.13;4930103;28;102793;-61
2022/07/11 07:31:00;;;;;;;2.30;2.10;;;;;;;21.91;58.13;99281.66;4942345;28;104064;-61
2022/07/11 07:33:28;;;;;;;2.20;1.95;;;;;;;22.54;57.04;99290.63;4926420;28;103340;-60
2022/07/11 07:36:11;;;;;;;3.08;2.88;;;;;;;22.74;57.59;99279.47;4943649;28;102629;-60
2022/07/11 07:38:41;;;;;;;4.00;2.22;;;;;;;22.93;56.26;99282.59;4943312;28;102705;-60
2022/07/11 07:41:10;;;;;;;1.77;1.67;;;;;;;23.68;55.04;99280.19;4933439;28;103355;-60
2022/07/11 07:43:38;;;;;;;2.73;2.30;;;;;;;23.65;56.02;99280.53;4944565;28;103357;-60
2022/07/11 07:46:09;;;;;;;2.45;2.10;;;;;;;23.79;53.80;99287.84;4943197;28;102666;-60
2022/07/11 07:48:37;;;;;;;2.97;2.55;;;;;;;23.07;54.71;99283.75;4942494;28;102944;-60
2022/07/11 07:51:06;;;;;;;2.25;2.10;;;;;;;23.30;56.17;99276.50;4942911;28;103316;-61
2022/07/11 07:53:34;;;;;;;2.10;1.90;;;;;;;23.22;55.54;99273.88;4943474;28;103504;-60
2022/07/11 07:56:02;;;;;;;2.05;1.88;;;;;;;23.72;54.59;99275.28;4926481;28;102777;-60
2022/07/11 07:58:30;;;;;;;3.83;1.95;;;;;;;24.18;53.81;99272.34;4943305;28;102689;-60
2022/07/11 08:03:45;;;;;;;2.40;2.00;;;;;;;25.08;51.00;99261.38;4942727;28;103120;-60
2022/07/11 08:06:13;;;;;;;2.50;1.70;;;;;;;25.35;49.23;99260.63;4940402;28;102855;-61
2022/07/11 08:08:41;;;;;;;2.10;1.80;;;;;;;25.08;51.12;99266.78;4940299;28;102817;-61
2022/07/11 08:11:09;;;;;;;2.20;2.00;;;;;;;24.38;51.08;99267.25;4918987;28;103182;-61
2022/07/11 08:13:58;;;;;;;1.63;1.53;;;;;;;24.71;51.43;99267.72;4924565;28;103201;-61
2022/07/11 08:16:28;;;;;;;1.52;1.40;;;;;;;25.36;50.41;99267.72;4944394;28;102638;-62
2022/07/11 08:19:00;;;;;;;2.03;1.23;;;;;;;25.41;49.24;99259.88;4925016;28;102714;-61
2022/07/11 08:21:29;;;;;;;1.17;1.07;;;;;;;26.29;47.67;99260.31;4941074;28;104941;-61
2022/07/11 08:23:57;;;;;;;1.17;1.08;;;;;;;25.64;48.63;99260.56;4923684;28;103194;-61
2022/07/11 08:26:25;;;;;;;1.30;1.20;;;;;;;25.76;47.23;99258.19;4938134;28;103087;-61
2022/07/11 08:29:00;;;;;;;1.65;1.33;;;;;;;25.25;48.08;99266.38;4936455;28;102659;-61
2022/07/11 08:31:29;;;;;;;2.05;1.20;;;;;;;25.26;48.79;99264.50;4939835;28;103368;-60
2022/07/11 08:33:59;;;;;;;1.63;1.10;;;;;;;25.95;47.21;99262.94;4943372;28;103261;-60
2022/07/11 08:36:29;;;;;;;1.90;1.30;;;;;;;27.00;46.79;99259.06;4942408;28;102783;-60
2022/07/11 08:38:59;;;;;;;2.90;1.40;;;;;;;26.29;46.00;99248.66;4941399;28;102738;-60
2022/07/11 08:41:29;;;;;;;2.03;1.20;;;;;;;25.83;47.24;99242.84;4920987;28;103314;-62
2022/07/11 08:43:59;;;;;;;1.17;1.10;;;;;;;25.69;47.71;99247.28;4939349;28;103300;-62
2022/07/11 08:46:27;;;;;;;1.25;1.15;;;;;;;26.39;45.40;99243.72;4938963;28;102853;-62
2022/07/11 08:48:56;;;;;;;1.60;1.20;;;;;;;25.72;46.12;99241.50;4929342;28;102924;-61
2022/07/11 08:51:27;;;;;;;1.40;1.15;;;;;;;25.89;47.50;99237.47;4938866;28;103774;-62
2022/07/11 08:53:58;;;;;;;1.13;1.00;;;;;;;25.75;47.39;99235.69;4941978;28;103190;-62
2022/07/11 08:56:29;;;;;;;1.40;1.10;;;;;;;25.85;47.61;99233.47;4935119;28;102824;-61
2022/07/11 08:58:59;;;;;;;1.75;0.88;;;;;;;27.03;44.77;99236.97;4938396;28;102811;-62
2022/07/11 09:01:30;;;;;;;1.50;1.10;;;;;;;26.52;45.51;99241.09;4939611;28;103305;-62
2022/07/11 09:03:59;;;;;;;1.50;0.90;;;;;;;26.31;45.31;99242.00;4933643;28;103296;-62
2022/07/11 09:06:29;;;;;;;1.55;1.20;;;;;;;26.07;45.60;99238.88;4939300;28;102642;-62
2022/07/11 09:08:59;;;;;;;1.27;1.17;;;;;;;26.46;45.16;99241.88;4939687;28;103681;-61
2022/07/11 09:11:27;;;;;;;1.45;1.30;;;;;;;25.80;46.76;99238.66;4920828;28;105309;-61
2022/07/11 09:13:55;;;;;;;1.50;1.00;;;;;;;27.31;44.25;99227.91;4923245;28;103227;-61
2022/07/11 09:16:26;;;;;;;1.80;1.08;;;;;;;27.95;43.24;99236.38;4939766;28;102638;-61
2022/07/11 09:18:59;;;;;;;1.40;1.10;;;;;;;28.37;43.40;99233.22;4940609;28;103970;-61
2022/07/11 09:26:59;;;;;;;1.55;1.30;;;;;;;27.52;45.50;99236.75;4940743;28;103929;-62
2022/07/11 09:29:27;;;;;;;1.40;1.30;;;;;;;29.25;43.60;99234.41;4942245;28;102960;-62
2022/07/11 09:31:56;;;;;;;2.13;1.02;;;;;;;28.50;41.77;99233.19;4939906;28;103216;-62
2022/07/11 09:34:26;;;;;;;1.23;1.00;;;;;;;27.33;41.96;99231.25;4939837;28;103292;-62
2022/07/11 09:36:57;;;;;;;0.98;0.98;;;;;;;25.81;44.88;99234.94;4923010;28;102638;-62
2022/07/11 09:39:28;;;;;;;1.33;0.80;;;;;;;25.73;45.34;99237.78;4940764;28;103995;-62
2022/07/11 09:41:57;;;;;;;0.95;0.82;;;;;;;25.87;44.96;99236.84;4923359;28;103423;-62
2022/07/11 09:44:27;;;;;;;0.95;0.80;;;;;;;26.16;43.97;99238.53;4921647;28;103792;-62
2022/07/11 09:46:56;;;;;;;2.13;0.68;;;;;;;26.30;45.06;99250.34;4937279;28;103115;-63
2022/07/11 09:49:33;;;;;;;1.05;0.95;;;;;;;26.46;43.84;99245.44;4956094;28;102926;-62
2022/07/11 09:52:10;;;;;;;2.60;1.60;;;;;;;25.85;45.43;99241.59;4940061;28;103771;-62
2022/07/11 09:54:56;;;;;;;1.40;0.80;;;;;;;26.57;44.20;99240.50;4938447;28;103330;-62
2022/07/11 09:57:31;;;;;;;1.45;1.15;;;;;;;24.61;47.85;99251.81;4939271;28;102711;-62
2022/07/11 10:00:00;;;;;;;2.17;1.30;;;;;;;23.65;49.21;99249.00;4940962;28;102852;-62
2022/07/11 10:02:32;;;;;;;1.13;1.02;;;;;;;24.98;48.14;99241.94;4938738;28;103208;-61
2022/07/11 10:05:03;;;;;;;1.17;1.08;;;;;;;24.39;49.05;99246.50;4939612;28;103761;-62
2022/07/11 10:07:33;;;;;;;1.95;1.00;;;;;;;24.83;48.21;99238.41;4938828;28;103041;-61
2022/07/11 10:10:02;;;;;;;1.20;1.10;;;;;;;24.74;48.77;99246.56;4939846;28;103325;-62
2022/07/11 10:12:31;;;;;;;2.70;1.10;;;;;;;24.44;48.22;99250.31;4936820;28;103314;-62
2022/07/11 10:15:02;;;;;;;1.50;1.07;;;;;;;25.14;47.45;99241.69;4939495;28;103332;-62
2022/07/11 10:17:37;;;;;;;1.00;0.90;;;;;;;26.57;47.12;99235.06;4939233;28;102880;-62
2022/07/11 10:20:12;;;;;;;1.58;1.33;;;;;;;25.35;46.09;99245.25;4938159;28;102635;-61
2022/07/11 10:22:49;;;;;;;1.73;1.20;;;;;;;25.15;45.27;99249.59;4938464;28;103320;-61
2022/07/11 10:25:25;;;;;;;1.38;1.00;;;;;;;25.67;45.43;99243.09;4919732;28;104222;-63
2022/07/11 10:28:13;;;;;;;1.70;1.20;;;;;;;25.39;45.47;99240.31;4937063;28;102660;-63
2022/07/11 10:30:44;;;;;;;1.60;1.23;;;;;;;25.12;44.77;99246.47;4939083;28;102603;-61
2022/07/11 10:33:12;;;;;;;1.20;1.10;;;;;;;25.25;45.06;99243.91;4938944;28;103424;-61
2022/07/11 10:35:42;;;;;;;1.10;1.00;;;;;;;26.85;43.23;99236.72;4921302;28;103731;-61
2022/07/11 10:38:12;;;;;;;1.70;1.15;;;;;;;26.42;42.09;99246.03;4922247;28;102894;-61
2022/07/11 10:40:46;;;;;;;1.30;1.05;;;;;;;26.44;43.75;99241.25;4938393;28;102754;-61
2022/07/11 10:43:16;;;;;;;1.10;1.10;;;;;;;26.77;41.75;99241.44;4939804;28;103323;-61
2022/07/11 10:46:00;;;;;;;2.78;1.20;;;;;;;27.49;42.94;99236.31;4938469;28;103510;-61
2022/07/11 10:48:30;;;;;;;1.30;1.20;;;;;;;27.03;44.19;99233.47;4922189;28;103353;-61
2022/07/11 10:51:24;;;;;;;1.42;1.00;;;;;;;27.27;42.64;99232.06;4922266;28;102890;-61
2022/07/11 10:53:54;;;;;;;2.03;1.02;;;;;;;27.33;41.61;99231.25;4940596;28;103936;-61
2022/07/11 10:56:35;;;;;;;1.05;0.95;;;;;;;26.39;44.01;99232.88;4941627;28;103214;-61
2022/07/11 10:59:21;;;;;;;1.40;1.10;;;;;;;24.82;45.95;99242.97;4942578;28;102587;-61
2022/07/11 11:02:11;;;;;;;1.10;1.00;;;;;;;25.49;44.71;99237.34;4941716;28;104366;-61
2022/07/11 11:04:45;;;;;;;1.08;0.90;;;;;;;26.30;44.95;99234.09;4923479;28;104387;-61
2022/07/11 11:07:34;;;;;;;1.50;1.40;;;;;;;24.95;45.98;99245.00;4941619;28;103236;-61
2022/07/11 11:10:28;;;;;;;1.52;1.20;;;;;;;25.58;44.21;99237.00;4943592;28;102692;-64
2022/07/11 11:13:14;;;;;;;1.03;1.00;;;;;;;26.73;42.54;99241.00;4938180;28;103372;-63
2022/07/11 11:15:44;;;;;;;1.00;1.00;;;;;;;27.31;43.14;99228.72;4941338;28;103143;-63
2022/07/11 11:18:35;;;;;;;0.90;0.90;;;;;;;27.28;42.23;99231.03;4939500;28;103279;-63
2022/07/11 11:21:22;;;;;;;1.63;1.20;;;;;;;26.98;41.80;99228.63;4940552;28;102709;-64
2022/07/11 11:24:08;;;;;;;1.03;0.93;;;;;;;27.64;43.04;99228.84;4938985;28;102830;-64
2022/07/11 11:26:47;;;;;;;1.90;0.88;;;;;;;27.71;42.17;99226.94;4938796;28;103643;-64
2022/07/11 11:29:20;;;;;;;1.13;1.02;;;;;;;28.99;41.65;99219.03;4940999;28;103433;-64
2022/07/11 11:31:54;;;;;;;1.30;1.20;;;;;;;28.43;40.33;99217.94;4938592;28;103061;-61
2022/07/11 11:34:22;;;;;;;1.10;1.00;;;;;;;28.91;39.71;99222.00;4938631;28;102702;-63
2022/07/11 11:36:54;;;;;;;1.60;1.02;;;;;;;27.64;42.24;99226.13;4936230;28;103294;-61
2022/07/11 11:39:27;;;;;;;1.40;1.30;;;;;;;26.43;43.54;99223.31;4920743;28;103288;-62
2022/07/11 11:42:02;;;;;;;1.23;1.13;;;;;;;26.08;43.59;99213.50;4938733;28;102671;-64
2022/07/11 11:44:29;;;;;;;2.40;1.30;;;;;;;25.64;45.93;99214.56;4924053;28;102859;-64
2022/07/11 11:46:57;;;;;;;1.40;1.30;;;;;;;25.03;46.43;99217.88;4940574;28;104334;-64
2022/07/11 11:49:25;;;;;;;1.20;1.00;;;;;;;27.04;45.12;99208.84;4943181;28;103120;-63